Overview Statistics Trail Chart Weather Telemetry Raw packets
 

This is the latest recevied weather packets stored in our database for station/object W0CHP-13. If no packets are shown the sender has not sent any weather packets the latest 10 day(s).

<< 1 2 3 4 5 6 7 >>
Time Temp. Humidity Pressure Rain* Wind** Luminosity Snow
1788651557 26.11° C 72% 1014.1 hPa 0 mm - 39 W/m² -
1788650955 26.11° C 73% 1014.1 hPa 0 mm - 36 W/m² -
1788650358 26.11° C 71% 1014.1 hPa 0 mm - 29 W/m² -
1788649757 26.67° C 70% 1014.4 hPa 0 mm - 34 W/m² -
1788649158 26.67° C 71% 1014.1 hPa 0 mm - 52 W/m² -
1788648557 26.67° C 71% 1014.4 hPa 0 mm - 63 W/m² -
1788647955 27.22° C 70% 1014.4 hPa 0 mm - 74 W/m² -
1788647358 27.22° C 70% 1014.4 hPa 0 mm - 104 W/m² -
1788646759 27.22° C 69% 1014.8 hPa 0 mm - 116 W/m² -
1788646157 27.22° C 69% 1014.8 hPa 0 mm - 105 W/m² -
1788645557 27.78° C 70% 1014.4 hPa 0 mm - 117 W/m² -
1788644956 27.78° C 69% 1014.4 hPa 0 mm - 142 W/m² -
1788644358 27.78° C 70% 1014.8 hPa 0 mm - 125 W/m² -
1788643755 28.33° C 68% 1014.8 hPa 0 mm - 146 W/m² -
1788643158 28.89° C 66% 1014.8 hPa 0 mm - 181 W/m² -
1788642556 29.44° C 65% 1015.1 hPa 0 mm - 180 W/m² -
1788641958 28.89° C 66% 1015.1 hPa 0 mm - 524 W/m² -
1788641356 28.33° C 68% 1015.1 hPa 0 mm - 267 W/m² -
1788640758 28.89° C 65% 1015.1 hPa 0 mm - 178 W/m² -
1788640158 29.44° C 64% 1015.1 hPa 0 mm - 507 W/m² -
1788639556 28.89° C 66% 1015.1 hPa 0 mm - 571 W/m² -
1788638955 28.89° C 68% 1015.1 hPa 0 mm - 601 W/m² -
1788638356 28.89° C 67% 1015.4 hPa 0 mm - 332 W/m² -
1788637759 28.33° C 70% 1015.4 hPa 0 mm - 794 W/m² -
1788637156 28.33° C 69% 1015.4 hPa 0 mm - 564 W/m² -

* Rain latest hour (hover to see other rain measurements)
** Current wind speed in m/s (hover to see current wind gust speed)